Time;durP1;ratioP1;P1;durP2;ratioP2;P2;SDS_P1;SDS_P2;PMS_P1;PMS_P2;Temp;Humidity;BMP_temperature;BMP_pressure;BME280_temperature;BME280_humidity;BME280_pressure;Samples;Min_cycle;Max_cycle;Signal;HPM_P1;HPM_P2
2023/08/15 00:01:55;;;;;;;5.65;2.60;;;26.50;73.60;;;;;;2552551;54;20963;-71
2023/08/15 00:04:21;;;;;;;4.60;2.62;;;26.50;73.60;;;;;;2552661;54;21243;-69
2023/08/15 00:06:48;;;;;;;4.22;2.60;;;26.50;73.60;;;;;;2552732;54;20967;-71
2023/08/15 00:09:15;;;;;;;3.75;2.62;;;26.40;73.60;;;;;;2312982;55;21007;-70
2023/08/15 00:11:43;;;;;;;4.68;2.25;;;26.40;73.60;;;;;;2537919;54;20965;-70
2023/08/15 00:14:11;;;;;;;8.13;2.55;;;26.40;73.70;;;;;;2535515;54;20991;-69
2023/08/15 00:16:37;;;;;;;3.53;2.35;;;26.30;73.70;;;;;;2552510;54;21569;-70
2023/08/15 00:19:04;;;;;;;8.35;2.55;;;26.30;73.80;;;;;;2553208;54;20959;-70
2023/08/15 00:21:30;;;;;;;4.65;2.42;;;26.30;74.00;;;;;;2313260;55;20983;-69
2023/08/15 00:23:56;;;;;;;3.92;2.58;;;26.30;74.00;;;;;;2551323;54;21062;-71
2023/08/15 00:26:23;;;;;;;5.20;2.50;;;26.30;74.10;;;;;;2313166;55;20927;-70
2023/08/15 00:28:49;;;;;;;3.95;2.47;;;26.30;74.10;;;;;;2552914;54;20973;-71
2023/08/15 00:31:15;;;;;;;4.37;2.50;;;26.30;74.20;;;;;;2313584;55;20984;-70
2023/08/15 00:33:42;;;;;;;3.62;2.20;;;26.30;74.20;;;;;;2552547;54;21411;-71
2023/08/15 00:36:09;;;;;;;4.45;2.45;;;26.20;74.20;;;;;;2552495;54;21549;-70
2023/08/15 00:38:36;;;;;;;5.00;2.47;;;26.20;74.20;;;;;;2553269;54;20982;-71
2023/08/15 00:41:02;;;;;;;4.18;2.58;;;26.20;74.30;;;;;;2552162;54;20955;-69
2023/08/15 00:43:28;;;;;;;3.83;2.58;;;26.20;74.40;;;;;;2313146;55;21385;-69
2023/08/15 00:45:55;;;;;;;4.93;2.40;;;26.20;74.50;;;;;;2312934;55;20979;-70
2023/08/15 00:48:21;;;;;;;3.72;2.30;;;26.20;74.50;;;;;;2312802;55;20955;-70
2023/08/15 00:50:50;;;;;;;6.20;2.67;;;26.10;74.40;;;;;;2537653;54;21475;-71
2023/08/15 00:53:18;;;;;;;4.57;2.87;;;26.20;74.60;;;;;;2296828;55;20975;-70
2023/08/15 00:55:44;;;;;;;4.20;2.90;;;26.10;74.50;;;;;;2293385;55;20965;-70
2023/08/15 00:58:11;;;;;;;5.57;2.58;;;26.10;74.70;;;;;;2309339;55;21010;-69
2023/08/15 01:00:37;;;;;;;3.87;2.60;;;26.10;74.80;;;;;;2552702;54;20991;-71
2023/08/15 01:03:04;;;;;;;5.12;2.80;;;26.10;74.90;;;;;;2545013;54;20966;-71
2023/08/15 01:05:30;;;;;;;4.47;2.62;;;26.10;74.90;;;;;;2476414;54;2973169;-71
2023/08/15 01:07:58;;;;;;;4.75;2.55;;;26.10;74.90;;;;;;2552194;54;21020;-70
2023/08/15 01:10:25;;;;;;;5.68;2.45;;;26.10;74.80;;;;;;2313029;55;21083;-73
2023/08/15 01:13:08;;;;;;;5.87;2.60;;;26.10;74.90;;;;;;2553054;54;20931;-72
2023/08/15 01:15:38;;;;;;;3.50;2.47;;;26.10;74.20;;;;;;2552359;54;21055;-70
2023/08/15 01:18:11;;;;;;;4.55;2.78;;;26.10;74.90;;;;;;2515092;55;21022;-70
2023/08/15 01:20:38;;;;;;;3.80;2.50;;;26.10;74.90;;;;;;2513101;55;20966;-70
2023/08/15 01:23:06;;;;;;;3.60;2.50;;;26.10;75.20;;;;;;2514744;55;20946;-70
2023/08/15 01:25:38;;;;;;;3.60;2.55;;;26.10;75.20;;;;;;2282221;56;20954;-72
2023/08/15 01:28:05;;;;;;;3.72;2.55;;;26.10;75.30;;;;;;2515001;55;21022;-71
2023/08/15 01:30:31;;;;;;;4.03;2.55;;;26.10;75.30;;;;;;2515129;54;20939;-71
2023/08/15 01:33:14;;;;;;;3.87;2.72;;;26.10;75.30;;;;;;2514301;54;20944;-72
2023/08/15 01:35:45;;;;;;;4.20;2.83;;;26.10;75.00;;;;;;2281030;56;21455;-73
2023/08/15 01:38:29;;;;;;;4.20;2.80;;;26.20;75.30;;;;;;2516527;55;20940;-71
2023/08/15 01:40:55;;;;;;;3.85;2.50;;;26.20;75.40;;;;;;2515498;54;21023;-71
2023/08/15 01:43:22;;;;;;;4.40;2.95;;;26.20;75.50;;;;;;2282213;54;20988;-71
2023/08/15 01:45:49;;;;;;;3.92;2.80;;;26.20;75.60;;;;;;2515422;54;20924;-70
2023/08/15 01:48:18;;;;;;;4.43;2.70;;;26.20;75.60;;;;;;2283234;55;20998;-70
2023/08/15 01:50:44;;;;;;;4.97;2.55;;;26.20;75.50;;;;;;2506079;55;21538;-72
2023/08/15 01:53:12;;;;;;;3.83;2.35;;;26.20;75.70;;;;;;2495472;55;20994;-70
2023/08/15 01:55:38;;;;;;;5.65;2.42;;;26.20;75.70;;;;;;2282995;55;20942;-69
2023/08/15 01:58:04;;;;;;;3.65;2.75;;;26.20;75.60;;;;;;2517385;55;21002;-72
2023/08/15 02:00:31;;;;;;;5.20;3.03;;;26.20;75.60;;;;;;2283853;55;21014;-71
2023/08/15 02:02:58;;;;;;;6.95;2.70;;;26.20;75.60;;;;;;2283709;55;20953;-70
2023/08/15 02:05:24;;;;;;;4.80;2.37;;;26.20;75.60;;;;;;2516075;55;21049;-70
2023/08/15 02:07:50;;;;;;;3.78;2.30;;;26.30;75.60;;;;;;2282207;55;21817;-72
2023/08/15 02:10:18;;;;;;;4.90;2.15;;;26.20;75.50;;;;;;2515596;54;20967;-70
2023/08/15 02:12:44;;;;;;;3.72;2.53;;;26.30;75.50;;;;;;2281891;54;20968;-71
2023/08/15 02:15:12;;;;;;;3.95;2.60;;;26.30;75.50;;;;;;2515492;54;21041;-70
2023/08/15 02:17:38;;;;;;;4.62;2.50;;;26.30;75.40;;;;;;2515338;54;20970;-68
2023/08/15 02:20:05;;;;;;;4.45;2.50;;;26.30;75.40;;;;;;2280565;56;20951;-70
2023/08/15 02:22:32;;;;;;;4.53;2.60;;;26.30;75.40;;;;;;2281864;56;21035;-70
2023/08/15 02:24:58;;;;;;;5.60;2.53;;;26.30;75.40;;;;;;2281927;56;21043;-72
2023/08/15 02:27:25;;;;;;;3.75;2.35;;;26.30;75.40;;;;;;2515332;55;21004;-72
2023/08/15 02:29:51;;;;;;;4.97;2.75;;;26.30;75.40;;;;;;2515392;55;20954;-71
2023/08/15 02:32:20;;;;;;;4.10;2.42;;;26.30;75.40;;;;;;2514474;55;20982;-69
2023/08/15 02:34:48;;;;;;;3.53;2.22;;;26.30;75.20;;;;;;2281602;55;21009;-70
2023/08/15 02:37:15;;;;;;;6.20;2.50;;;26.30;75.40;;;;;;2515068;55;21061;-73
2023/08/15 02:39:42;;;;;;;5.32;2.65;;;26.30;75.30;;;;;;2514984;55;20974;-70
2023/08/15 02:42:09;;;;;;;4.55;2.58;;;26.30;75.30;;;;;;2282060;55;21015;-72
2023/08/15 02:44:36;;;;;;;4.15;2.80;;;26.30;75.30;;;;;;2509580;55;20978;-69
2023/08/15 02:47:02;;;;;;;4.05;2.60;;;26.30;75.10;;;;;;2277709;55;20962;-70
2023/08/15 02:49:35;;;;;;;4.15;2.60;;;26.30;75.10;;;;;;2515089;55;21061;-71
2023/08/15 02:52:01;;;;;;;4.70;2.40;;;26.30;75.20;;;;;;2513821;55;20950;-71
2023/08/15 02:54:27;;;;;;;4.00;2.53;;;26.30;75.20;;;;;;2280435;55;22430;-71
2023/08/15 02:56:54;;;;;;;4.12;2.70;;;26.20;75.90;;;;;;2281170;55;21002;-71
2023/08/15 02:59:20;;;;;;;4.60;2.50;;;26.30;75.20;;;;;;2267707;55;21499;-71
2023/08/15 03:01:48;;;;;;;4.20;2.70;;;26.20;75.10;;;;;;2269179;56;21054;-72
2023/08/15 03:04:15;;;;;;;4.25;2.58;;;26.20;75.00;;;;;;2286506;55;20970;-72
2023/08/15 03:06:42;;;;;;;3.28;2.33;;;26.20;75.00;;;;;;2506112;55;20966;-70
2023/08/15 03:09:10;;;;;;;5.43;2.60;;;26.20;75.00;;;;;;2293853;55;20939;-68
2023/08/15 03:11:36;;;;;;;5.72;2.60;;;26.20;75.00;;;;;;2312571;55;21856;-69
2023/08/15 03:14:03;;;;;;;4.20;2.70;;;26.20;74.80;;;;;;2553044;54;21709;-70
2023/08/15 03:16:30;;;;;;;4.80;2.62;;;26.10;74.60;;;;;;2546715;54;20979;-71
2023/08/15 03:18:57;;;;;;;5.10;2.92;;;26.10;74.60;;;;;;2514507;55;21030;-71
2023/08/15 03:21:25;;;;;;;4.47;2.87;;;26.10;74.70;;;;;;2549993;54;21420;-67
2023/08/15 03:23:51;;;;;;;5.68;2.62;;;26.20;74.80;;;;;;2552639;54;21785;-72
2023/08/15 03:26:17;;;;;;;4.30;2.65;;;26.10;74.90;;;;;;2312321;55;20995;-71
2023/08/15 03:28:44;;;;;;;5.18;2.50;;;26.00;74.90;;;;;;2550942;54;20975;-70
2023/08/15 03:31:10;;;;;;;5.20;3.00;;;26.00;74.90;;;;;;2287130;55;20963;-69
2023/08/15 03:33:36;;;;;;;6.25;2.80;;;26.00;75.00;;;;;;2551866;54;21848;-71
2023/08/15 03:36:03;;;;;;;4.12;2.33;;;26.00;75.00;;;;;;2550912;54;21011;-70
2023/08/15 03:38:30;;;;;;;5.03;2.37;;;26.00;74.90;;;;;;2551906;54;20948;-72
2023/08/15 03:41:02;;;;;;;3.90;2.50;;;26.00;74.80;;;;;;2312694;55;20939;-71
2023/08/15 03:43:29;;;;;;;4.57;2.87;;;26.00;74.70;;;;;;2313661;55;21431;-72
2023/08/15 03:45:56;;;;;;;4.90;2.72;;;25.90;74.90;;;;;;2312971;55;21055;-72
2023/08/15 03:48:22;;;;;;;4.78;2.70;;;25.90;74.90;;;;;;2313320;55;21447;-70
2023/08/15 03:50:51;;;;;;;4.43;2.58;;;25.90;74.90;;;;;;2552618;54;20940;-71
2023/08/15 03:53:18;;;;;;;3.78;2.17;;;25.90;75.00;;;;;;2552679;54;20936;-71
2023/08/15 03:55:45;;;;;;;5.60;2.95;;;25.80;74.90;;;;;;2552094;54;21011;-71
2023/08/15 03:58:15;;;;;;;5.03;2.83;;;25.80;74.90;;;;;;2553010;54;21848;-71
2023/08/15 04:00:43;;;;;;;4.03;2.50;;;25.80;74.90;;;;;;2315903;55;20983;-72
2023/08/15 04:03:09;;;;;;;6.05;2.78;;;25.80;74.80;;;;;;2277535;55;21734;-70
2023/08/15 04:05:35;;;;;;;6.07;2.67;;;25.70;74.90;;;;;;2543262;54;20928;-71
2023/08/15 04:08:05;;;;;;;4.12;2.95;;;25.70;74.90;;;;;;2551754;54;20955;-71
2023/08/15 04:10:39;;;;;;;4.45;2.72;;;25.70;74.80;;;;;;2552531;54;21031;-71
2023/08/15 04:13:09;;;;;;;5.30;2.45;;;25.70;74.60;;;;;;2313141;55;21032;-70
2023/08/15 04:15:36;;;;;;;3.78;2.50;;;25.70;74.60;;;;;;2521570;54;20943;-71
2023/08/15 04:18:06;;;;;;;3.92;2.90;;;25.70;74.90;;;;;;2552631;54;20936;-71
2023/08/15 04:20:43;;;;;;;4.57;2.75;;;25.60;74.50;;;;;;2552629;54;20927;-70
2023/08/15 04:23:09;;;;;;;4.55;2.47;;;25.60;74.80;;;;;;2313246;55;21520;-70
2023/08/15 04:25:37;;;;;;;4.07;2.50;;;25.60;74.90;;;;;;2552893;54;20928;-70
2023/08/15 04:28:05;;;;;;;3.37;2.10;;;25.60;74.80;;;;;;2552535;54;20935;-72
2023/08/15 04:30:34;;;;;;;3.92;2.35;;;25.50;74.80;;;;;;2553238;54;20952;-69
2023/08/15 04:33:01;;;;;;;5.22;2.58;;;25.50;74.70;;;;;;2552387;54;20928;-72
2023/08/15 04:35:27;;;;;;;3.95;2.30;;;25.50;74.70;;;;;;2552677;54;20993;-69
2023/08/15 04:37:55;;;;;;;3.58;2.40;;;25.50;74.70;;;;;;2312598;55;20947;-71
2023/08/15 04:40:33;;;;;;;3.35;1.95;;;25.50;74.60;;;;;;2313465;55;21019;-73
2023/08/15 04:43:03;;;;;;;3.58;1.80;;;25.40;74.00;;;;;;2552186;54;20951;-70
2023/08/15 04:45:29;;;;;;;4.00;2.50;;;25.40;74.40;;;;;;2551993;54;21033;-69
2023/08/15 04:47:55;;;;;;;3.20;2.17;;;25.40;74.70;;;;;;2552155;54;20956;-70
2023/08/15 04:50:22;;;;;;;3.97;2.67;;;25.30;74.70;;;;;;2302195;55;20973;-72
2023/08/15 04:52:49;;;;;;;4.15;2.72;;;25.30;74.70;;;;;;2536948;54;20959;-71
2023/08/15 04:55:15;;;;;;;4.05;2.70;;;25.20;74.70;;;;;;2552599;54;20972;-70
2023/08/15 04:57:42;;;;;;;6.30;2.58;;;25.20;74.70;;;;;;2290149;55;20956;-71
2023/08/15 05:00:09;;;;;;;3.42;2.37;;;25.20;74.80;;;;;;2552609;54;21000;-70
2023/08/15 05:02:35;;;;;;;8.73;3.08;;;25.20;74.90;;;;;;2289597;55;20977;-70
2023/08/15 05:05:06;;;;;;;5.18;3.08;;;25.20;75.00;;;;;;2288917;56;21442;-70
2023/08/15 05:07:32;;;;;;;4.28;2.78;;;25.20;75.10;;;;;;2312955;55;20979;-71
2023/08/15 05:09:59;;;;;;;7.40;2.78;;;25.10;75.20;;;;;;2552396;54;20968;-71
2023/08/15 05:12:33;;;;;;;3.78;2.45;;;25.10;75.40;;;;;;2313272;55;20958;-71
2023/08/15 05:14:59;;;;;;;6.28;3.00;;;25.10;75.50;;;;;;2312977;55;21019;-72
2023/08/15 05:17:25;;;;;;;6.10;3.50;;;25.10;75.60;;;;;;2551531;54;21027;-71
2023/08/15 05:19:52;;;;;;;4.30;2.90;;;25.10;75.70;;;;;;2552497;54;21004;-70
2023/08/15 05:22:19;;;;;;;4.28;2.83;;;25.10;75.80;;;;;;2538209;54;21033;-70
2023/08/15 05:24:46;;;;;;;3.97;2.53;;;25.10;75.90;;;;;;2514010;55;21029;-70
2023/08/15 05:27:12;;;;;;;4.87;2.42;;;25.10;76.00;;;;;;2305681;55;21043;-70
2023/08/15 05:29:43;;;;;;;5.68;3.12;;;25.10;76.00;;;;;;2312127;55;21449;-72
2023/08/15 05:32:10;;;;;;;5.03;2.45;;;25.20;76.20;;;;;;2313243;55;21048;-70
2023/08/15 05:34:36;;;;;;;4.35;2.50;;;25.20;76.20;;;;;;2552867;54;21453;-71
2023/08/15 05:37:02;;;;;;;4.07;2.83;;;25.20;76.20;;;;;;2307376;55;21045;-71
2023/08/15 05:39:30;;;;;;;4.03;2.53;;;25.20;76.20;;;;;;2531114;54;20908;-72
2023/08/15 05:41:57;;;;;;;5.45;2.60;;;25.20;76.20;;;;;;2312038;55;20963;-72
2023/08/15 05:44:23;;;;;;;3.50;2.35;;;25.20;76.30;;;;;;2520898;54;21016;-73
2023/08/15 05:46:50;;;;;;;3.83;2.42;;;25.20;76.40;;;;;;2552625;54;21555;-70
2023/08/15 05:49:17;;;;;;;4.43;2.67;;;25.30;76.50;;;;;;2312289;55;21028;-71
2023/08/15 05:51:43;;;;;;;5.43;2.95;;;25.30;76.60;;;;;;2552006;54;20951;-70
2023/08/15 05:54:09;;;;;;;4.55;3.00;;;25.30;76.60;;;;;;2525719;54;21037;-71
2023/08/15 05:56:36;;;;;;;4.68;3.00;;;25.40;76.80;;;;;;2310721;55;20975;-71
2023/08/15 05:59:02;;;;;;;4.62;3.33;;;25.40;76.80;;;;;;2512903;54;20997;-70
2023/08/15 06:01:28;;;;;;;4.68;3.20;;;25.40;76.80;;;;;;2274754;55;20931;-73
2023/08/15 06:03:55;;;;;;;4.68;3.15;;;25.50;77.00;;;;;;2552634;54;21015;-71
2023/08/15 06:06:22;;;;;;;5.00;3.55;;;25.50;77.00;;;;;;2553754;54;20924;-71
2023/08/15 06:08:48;;;;;;;6.05;3.60;;;25.50;76.90;;;;;;2530633;54;21454;-71
2023/08/15 06:11:16;;;;;;;4.97;3.35;;;25.50;77.00;;;;;;2544141;54;20980;-72
2023/08/15 06:13:42;;;;;;;4.53;3.53;;;25.60;77.00;;;;;;2552150;54;21968;-72
2023/08/15 06:16:10;;;;;;;4.40;3.37;;;25.60;77.00;;;;;;2553193;54;20983;-72
2023/08/15 06:18:38;;;;;;;5.70;3.60;;;25.70;77.10;;;;;;2553009;54;21087;-68
2023/08/15 06:21:04;;;;;;;6.05;3.30;;;25.70;77.10;;;;;;2553467;54;21861;-72
2023/08/15 06:23:32;;;;;;;5.87;3.53;;;25.70;77.00;;;;;;2553085;54;20951;-70
2023/08/15 06:25:59;;;;;;;4.45;3.10;;;25.80;77.10;;;;;;2553322;54;21015;-72
2023/08/15 06:28:25;;;;;;;5.30;3.12;;;25.80;77.10;;;;;;2313879;55;20967;-70
2023/08/15 06:30:52;;;;;;;5.37;3.35;;;25.80;77.00;;;;;;2553560;54;20980;-72
2023/08/15 06:33:18;;;;;;;5.32;3.80;;;25.90;77.10;;;;;;2313115;55;21426;-72
2023/08/15 06:35:44;;;;;;;5.05;3.60;;;25.90;77.00;;;;;;2312898;55;21492;-71
2023/08/15 06:38:11;;;;;;;4.12;3.03;;;25.90;77.00;;;;;;2552833;54;21075;-73
2023/08/15 06:40:38;;;;;;;4.60;3.10;;;26.00;77.10;;;;;;2313898;55;21761;-73
2023/08/15 06:43:05;;;;;;;5.28;2.95;;;26.00;77.10;;;;;;2552370;54;20968;-70
2023/08/15 06:45:37;;;;;;;5.37;3.35;;;26.00;77.00;;;;;;2551231;54;20932;-71
2023/08/15 06:48:05;;;;;;;;;;;26.10;76.80;;;;;;2528013;54;21507;-70
2023/08/15 06:50:32;;;;;;;4.15;2.90;;;26.10;76.10;;;;;;2313571;55;20104;-71
2023/08/15 06:52:58;;;;;;;4.90;3.08;;;26.10;77.00;;;;;;2313159;55;21019;-71
2023/08/15 06:55:25;;;;;;;4.43;2.75;;;26.10;77.00;;;;;;2312851;55;20931;-73
2023/08/15 06:57:51;;;;;;;4.78;2.83;;;26.20;77.10;;;;;;2514346;55;21058;-72
2023/08/15 07:00:17;;;;;;;5.43;3.28;;;26.20;77.10;;;;;;2479691;55;20990;-71
2023/08/15 07:02:44;;;;;;;4.80;2.90;;;26.30;77.10;;;;;;2279750;55;20962;-70
2023/08/15 07:05:10;;;;;;;4.95;3.33;;;26.30;77.10;;;;;;2505164;55;21867;-73
2023/08/15 07:07:39;;;;;;;5.05;3.60;;;26.30;77.10;;;;;;2483433;55;20978;-70
2023/08/15 07:10:10;;;;;;;6.15;3.83;;;26.30;77.10;;;;;;2281792;55;20930;-72
2023/08/15 07:12:40;;;;;;;5.10;3.67;;;26.40;77.10;;;;;;2283462;55;20958;-74
2023/08/15 07:15:12;;;;;;;7.43;4.12;;;26.40;76.90;;;;;;2515384;55;20974;-72
2023/08/15 07:17:40;;;;;;;5.72;3.17;;;26.40;77.10;;;;;;2514729;55;21005;-69
2023/08/15 07:20:09;;;;;;;6.80;3.90;;;26.40;77.10;;;;;;2514912;55;20938;-71
2023/08/15 07:22:36;;;;;;;5.50;3.70;;;26.50;77.20;;;;;;2512107;55;21009;-71
2023/08/15 07:25:03;;;;;;;5.50;3.53;;;26.50;77.10;;;;;;2275950;55;21007;-74
2023/08/15 07:27:33;;;;;;;4.53;3.22;;;26.60;77.20;;;;;;2515132;55;21042;-73
2023/08/15 07:30:02;;;;;;;4.05;3.03;;;26.60;77.30;;;;;;2514603;55;20994;-72
2023/08/15 07:32:31;;;;;;;3.97;2.83;;;26.60;77.20;;;;;;2514927;55;21033;-72
2023/08/15 07:34:57;;;;;;;4.00;2.92;;;26.70;77.10;;;;;;2281205;55;21803;-71
2023/08/15 07:37:24;;;;;;;4.85;3.33;;;26.70;77.30;;;;;;2282364;55;21026;-72
2023/08/15 07:40:00;;;;;;;5.25;2.65;;;26.70;77.30;;;;;;2515164;55;20931;-72
2023/08/15 07:42:29;;;;;;;5.87;3.10;;;26.80;77.00;;;;;;2514851;55;20908;-72
2023/08/15 07:44:58;;;;;;;5.28;2.83;;;26.80;77.20;;;;;;2286232;55;20994;-71
2023/08/15 07:47:25;;;;;;;4.12;2.83;;;26.90;77.20;;;;;;2553117;54;20975;-73
2023/08/15 07:50:14;;;;;;;4.00;2.83;;;26.90;77.40;;;;;;2552281;54;20959;-73
2023/08/15 07:52:41;;;;;;;4.10;2.67;;;27.00;76.50;;;;;;2552944;54;20951;-74
2023/08/15 07:55:08;;;;;;;5.45;3.20;;;27.00;77.40;;;;;;2552834;54;20947;-73
2023/08/15 07:57:34;;;;;;;4.97;2.85;;;27.10;77.60;;;;;;2552964;54;21019;-73
2023/08/15 08:00:01;;;;;;;4.53;3.03;;;27.20;77.50;;;;;;2552316;54;20959;-73
2023/08/15 08:02:28;;;;;;;6.53;2.62;;;27.20;77.50;;;;;;2552666;54;20975;-71
2023/08/15 08:04:55;;;;;;;4.03;2.87;;;27.30;77.60;;;;;;2552281;54;20936;-70
2023/08/15 08:07:21;;;;;;;3.92;2.75;;;27.30;77.40;;;;;;2298188;55;20973;-72
2023/08/15 08:09:47;;;;;;;4.78;2.15;;;27.40;77.20;;;;;;2304411;55;20975;-72
2023/08/15 08:12:15;;;;;;;3.50;2.08;;;27.40;77.10;;;;;;2312368;55;20991;-72
2023/08/15 08:14:44;;;;;;;3.80;2.03;;;27.50;76.80;;;;;;2312409;55;20948;-72
2023/08/15 08:17:14;;;;;;;4.35;2.35;;;27.60;76.30;;;;;;2551870;54;21405;-73
2023/08/15 08:19:41;;;;;;;4.32;2.50;;;27.60;76.50;;;;;;2312533;55;21896;-70
2023/08/15 08:22:07;;;;;;;3.85;2.10;;;27.70;76.20;;;;;;2552578;54;20956;-72
2023/08/15 08:24:33;;;;;;;3.42;2.00;;;27.70;75.90;;;;;;2552988;54;20968;-71
2023/08/15 08:27:00;;;;;;;4.37;2.10;;;27.80;75.70;;;;;;2312461;55;21039;-75
2023/08/15 08:29:26;;;;;;;3.58;1.98;;;27.80;75.40;;;;;;2552168;54;20967;-76
2023/08/15 08:31:54;;;;;;;3.03;1.73;;;27.90;75.30;;;;;;2289516;55;21097;-73
2023/08/15 08:34:21;;;;;;;5.50;2.00;;;27.90;75.00;;;;;;2311784;55;21018;-71
2023/08/15 08:36:47;;;;;;;3.92;2.20;;;28.00;75.10;;;;;;2551986;54;20971;-73
2023/08/15 08:39:14;;;;;;;3.58;2.15;;;28.10;74.90;;;;;;2312814;55;20975;-73
2023/08/15 08:41:47;;;;;;;2.95;1.77;;;28.10;74.60;;;;;;2311965;55;21098;-73
2023/08/15 08:44:14;;;;;;;3.10;1.85;;;28.10;74.40;;;;;;2312195;55;20972;-73
2023/08/15 08:46:40;;;;;;;3.37;2.05;;;28.10;74.30;;;;;;2525718;54;20965;-73
2023/08/15 08:49:07;;;;;;;3.55;1.80;;;28.20;74.30;;;;;;2547392;54;21055;-72
2023/08/15 08:51:34;;;;;;;4.97;1.90;;;28.20;73.80;;;;;;2552736;54;20947;-73
2023/08/15 08:54:01;;;;;;;3.37;1.73;;;28.30;73.40;;;;;;2313191;55;20971;-70
2023/08/15 08:56:29;;;;;;;3.47;1.87;;;28.30;72.80;;;;;;2553465;54;21020;-70
2023/08/15 08:59:05;;;;;;;4.40;1.73;;;28.30;72.40;;;;;;2553033;54;21003;-75
2023/08/15 09:01:35;;;;;;;3.00;1.55;;;28.40;70.70;;;;;;2553298;54;20916;-71
2023/08/15 09:04:01;;;;;;;3.42;1.83;;;28.40;72.00;;;;;;2311241;55;21040;-69
2023/08/15 09:06:27;;;;;;;2.80;1.60;;;28.40;71.90;;;;;;2293760;55;20960;-71
2023/08/15 09:08:54;;;;;;;4.18;1.50;;;28.50;71.60;;;;;;2552511;54;20983;-71
2023/08/15 09:11:21;;;;;;;4.43;1.60;;;28.50;71.50;;;;;;2552804;54;21137;-72
2023/08/15 09:13:48;;;;;;;3.45;1.62;;;28.60;71.00;;;;;;2312858;55;20960;-70
2023/08/15 09:16:15;;;;;;;3.15;1.40;;;28.60;70.60;;;;;;2312871;55;21027;-70
2023/08/15 09:18:41;;;;;;;3.17;1.55;;;28.60;70.60;;;;;;2552306;54;21839;-74
2023/08/15 09:21:08;;;;;;;4.47;2.05;;;28.70;70.50;;;;;;2312738;55;21023;-72
2023/08/15 09:23:35;;;;;;;6.60;2.05;;;28.70;70.40;;;;;;2297379;55;20957;-73
2023/08/15 09:26:12;;;;;;;4.20;2.15;;;28.70;70.60;;;;;;2514493;55;20996;-70
2023/08/15 09:28:40;;;;;;;3.72;1.83;;;28.80;69.60;;;;;;2311796;55;21790;-70
2023/08/15 09:31:10;;;;;;;3.78;1.95;;;28.80;70.70;;;;;;2312301;55;21250;-71
2023/08/15 09:33:37;;;;;;;5.55;2.20;;;28.80;70.60;;;;;;2552201;54;20936;-71
2023/08/15 09:36:06;;;;;;;3.05;1.90;;;28.80;70.50;;;;;;2312435;55;20916;-71
2023/08/15 09:38:36;;;;;;;3.03;1.55;;;28.90;70.30;;;;;;2312680;55;20951;-73
2023/08/15 09:41:06;;;;;;;3.40;1.90;;;28.90;70.40;;;;;;2290302;55;20947;-71
2023/08/15 09:43:32;;;;;;;3.42;1.77;;;28.90;70.60;;;;;;2552469;54;21090;-71
2023/08/15 09:45:59;;;;;;;3.80;1.73;;;28.90;70.40;;;;;;2313131;55;20999;-70
2023/08/15 09:48:29;;;;;;;3.15;1.85;;;28.90;70.10;;;;;;2312753;55;20924;-70
2023/08/15 09:50:56;;;;;;;2.83;1.58;;;29.00;70.00;;;;;;2312735;55;21437;-73
2023/08/15 09:53:23;;;;;;;3.92;1.60;;;28.90;70.10;;;;;;2553190;54;21087;-71
2023/08/15 09:55:49;;;;;;;3.37;1.50;;;29.00;70.00;;;;;;2553801;54;21473;-70
2023/08/15 09:58:19;;;;;;;4.53;1.70;;;29.00;69.70;;;;;;2553568;54;21034;-72
2023/08/15 10:00:50;;;;;;;3.40;1.70;;;29.00;69.00;;;;;;2553372;54;21007;-72
2023/08/15 10:03:23;;;;;;;3.42;1.62;;;29.00;69.40;;;;;;2313584;55;20944;-73
2023/08/15 10:05:54;;;;;;;4.10;1.37;;;29.00;69.20;;;;;;2313273;55;21483;-71
2023/08/15 10:08:21;;;;;;;3.10;1.52;;;29.00;68.70;;;;;;2552930;54;20975;-72
2023/08/15 10:10:50;;;;;;;2.65;1.50;;;29.00;69.20;;;;;;2307606;55;20985;-73
2023/08/15 10:13:22;;;;;;;3.20;1.58;;;29.00;68.90;;;;;;2533615;54;20963;-73
2023/08/15 10:15:49;;;;;;;;;;;29.00;68.20;;;;;;2317061;55;20956;-72
2023/08/15 10:18:15;;;;;;;3.92;1.42;;;29.00;67.70;;;;;;2553731;54;20060;-71
2023/08/15 10:20:42;;;;;;;2.70;1.30;;;29.00;69.10;;;;;;2553063;54;20963;-71
2023/08/15 10:23:09;;;;;;;5.47;1.50;;;29.00;68.70;;;;;;2553749;54;20944;-70
2023/08/15 10:25:38;;;;;;;3.62;1.80;;;29.10;68.90;;;;;;2313763;55;20948;-70
2023/08/15 10:28:09;;;;;;;3.62;1.42;;;29.00;68.30;;;;;;2314110;55;20928;-71
2023/08/15 10:30:46;;;;;;;2.83;1.30;;;29.00;68.40;;;;;;2553678;54;20968;-70
2023/08/15 10:33:16;;;;;;;2.92;1.70;;;29.00;68.30;;;;;;2314041;55;21015;-71
2023/08/15 10:36:45;;;;;;;3.55;1.12;;;29.10;67.80;;;;;;2314061;55;21821;-71
2023/08/15 10:39:17;;;;;;;2.15;1.15;;;29.10;66.70;;;;;;2553978;54;20939;-72
2023/08/15 10:41:43;;;;;;;2.62;1.17;;;29.10;68.00;;;;;;2553485;54;20975;-71
2023/08/15 10:44:10;;;;;;;2.90;1.30;;;29.10;68.40;;;;;;2314322;55;21007;-71
2023/08/15 10:46:36;;;;;;;2.33;1.15;;;29.10;68.30;;;;;;2313595;55;21431;-70
2023/08/15 10:49:13;;;;;;;2.60;1.30;;;29.20;68.30;;;;;;2304757;55;20929;-70
2023/08/15 10:51:40;;;;;;;2.58;1.00;;;29.20;67.00;;;;;;2540095;54;20947;-71
2023/08/15 10:54:13;;;;;;;2.67;1.42;;;29.20;67.90;;;;;;2554677;54;21435;-71
2023/08/15 10:56:40;;;;;;;2.90;1.10;;;29.20;67.00;;;;;;2313771;55;21765;-70
2023/08/15 10:59:17;;;;;;;3.83;1.30;;;29.20;68.10;;;;;;2313548;55;20932;-71
2023/08/15 11:01:44;;;;;;;2.05;1.05;;;29.30;66.90;;;;;;2312137;55;20932;-73
2023/08/15 11:04:15;;;;;;;2.62;1.17;;;29.30;68.20;;;;;;2553068;54;21015;-70
2023/08/15 11:06:47;;;;;;;2.62;1.25;;;29.40;67.50;;;;;;2313371;55;21317;-71
2023/08/15 11:09:14;;;;;;;3.08;1.35;;;29.40;67.10;;;;;;2313308;55;21799;-72
2023/08/15 11:11:40;;;;;;;2.33;1.20;;;29.40;67.70;;;;;;2313745;55;21598;-71
2023/08/15 11:14:19;;;;;;;3.03;1.20;;;29.50;67.90;;;;;;2313930;55;20919;-72
2023/08/15 11:16:46;;;;;;;3.60;1.40;;;29.50;66.40;;;;;;2313215;55;21051;-70
2023/08/15 11:19:15;;;;;;;4.15;1.55;;;29.60;67.40;;;;;;2313585;55;20983;-69
2023/08/15 11:21:42;;;;;;;3.00;1.37;;;29.60;66.70;;;;;;2313419;55;21004;-71
2023/08/15 11:24:10;;;;;;;3.00;1.50;;;29.70;67.30;;;;;;2553617;54;20964;-71
2023/08/15 11:26:37;;;;;;;2.92;1.40;;;29.70;66.90;;;;;;2313754;55;21063;-72
2023/08/15 11:29:04;;;;;;;3.45;1.60;;;29.70;66.80;;;;;;2312767;55;20995;-71
2023/08/15 11:31:30;;;;;;;2.85;1.58;;;29.80;66.90;;;;;;2553261;54;20923;-71
2023/08/15 11:33:58;;;;;;;2.58;1.27;;;29.90;66.90;;;;;;2312335;55;20951;-74
2023/08/15 11:36:24;;;;;;;3.40;1.65;;;29.90;67.00;;;;;;2551732;54;20979;-73
2023/08/15 11:38:51;;;;;;;3.67;1.80;;;29.90;67.00;;;;;;2313244;55;20987;-72
2023/08/15 11:41:18;;;;;;;2.72;1.30;;;30.00;67.00;;;;;;2553028;54;20952;-71
2023/08/15 11:43:44;;;;;;;3.08;1.52;;;30.00;67.10;;;;;;2552599;54;20953;-72
2023/08/15 11:46:11;;;;;;;3.85;1.35;;;30.00;67.30;;;;;;2313478;55;21046;-71
2023/08/15 11:48:37;;;;;;;3.35;1.65;;;30.10;67.30;;;;;;2313395;55;21028;-70
2023/08/15 11:51:06;;;;;;;3.12;1.40;;;30.20;67.40;;;;;;2313086;55;20983;-71
2023/08/15 11:53:35;;;;;;;3.78;1.58;;;30.20;67.40;;;;;;2312228;55;20963;-73
2023/08/15 11:56:02;;;;;;;3.25;1.60;;;30.20;67.20;;;;;;2314011;55;20944;-71
2023/08/15 11:58:32;;;;;;;3.72;1.70;;;30.30;67.50;;;;;;2553353;54;20959;-71
2023/08/15 12:01:11;;;;;;;4.18;2.10;;;30.30;67.30;;;;;;2553273;54;20936;-71
2023/08/15 12:03:38;;;;;;;2.30;1.30;;;30.40;66.20;;;;;;2547369;54;21016;-71
2023/08/15 12:06:06;;;;;;;3.50;1.50;;;30.40;67.10;;;;;;2553744;54;21023;-71
2023/08/15 12:08:32;;;;;;;3.75;1.62;;;30.50;66.80;;;;;;2313272;55;21007;-71
2023/08/15 12:11:02;;;;;;;3.05;1.40;;;30.60;66.90;;;;;;2289615;55;21002;-71
2023/08/15 12:13:35;;;;;;;3.37;1.40;;;30.60;66.70;;;;;;2553544;54;20975;-72
2023/08/15 12:16:02;;;;;;;3.35;1.55;;;30.60;66.30;;;;;;2521242;54;21019;-72
2023/08/15 12:18:28;;;;;;;3.42;1.45;;;30.70;66.70;;;;;;2312736;55;20916;-71
2023/08/15 12:20:55;;;;;;;3.35;1.67;;;30.70;66.80;;;;;;2552667;54;21349;-73
2023/08/15 12:23:21;;;;;;;3.10;1.40;;;30.80;66.80;;;;;;2552957;54;20939;-72
2023/08/15 12:25:49;;;;;;;3.90;1.40;;;30.80;66.40;;;;;;2295517;55;20965;-71
2023/08/15 12:28:17;;;;;;;4.50;1.83;;;30.80;66.30;;;;;;2308831;55;21452;-72
2023/08/15 12:30:44;;;;;;;3.20;1.33;;;30.90;66.50;;;;;;2553478;54;21834;-72
2023/08/15 12:33:11;;;;;;;2.85;1.23;;;30.90;66.30;;;;;;2552961;54;20966;-72
2023/08/15 12:35:38;;;;;;;3.87;1.50;;;31.00;66.10;;;;;;2552782;54;21008;-71
2023/08/15 12:38:04;;;;;;;2.97;1.50;;;31.00;66.20;;;;;;2547813;54;21007;-71
2023/08/15 12:40:32;;;;;;;2.58;1.55;;;31.00;66.20;;;;;;2313267;55;20979;-71
2023/08/15 12:42:58;;;;;;;3.33;1.17;;;31.00;66.10;;;;;;2313488;55;21014;-71
2023/08/15 12:45:25;;;;;;;2.58;1.40;;;31.10;65.90;;;;;;2553021;54;21075;-71
2023/08/15 12:47:57;;;;;;;2.30;1.23;;;31.10;65.80;;;;;;2312739;55;21031;-71
2023/08/15 12:50:23;;;;;;;3.37;1.33;;;31.10;65.80;;;;;;2312890;55;20968;-72
2023/08/15 12:52:49;;;;;;;2.87;1.55;;;31.20;65.90;;;;;;2313052;55;21424;-71